Astoria Regional Airport
KAST : now visible

Airfield :











YOU CAN JOIN US ON...

 
LOGIN :

Register | Disclaimer

   EN    FR    IT 

 









Legend :    VFR   Marginal VFR   IFR   Intensive IFR   Very Intensive IFR
Visi :
Ceiling :
>= 8 km
>= 3000ft
5 to 8 km
1000 to 3000 ft
1500m to 5 km
500 to 1000 ft
800 to 1500m
200 to 500 ft
< 800m
< 200 ft
Symbols :   Thunderstorms  Fog  Heavy snow  Heavy precipitations  Wind > 20 kt






- Airport Elevation : 15 ft


KAST - Astoria Regional

CURRENT METAR :
  • 150655Z AUTO 15003KT 1/4SM FG VV002 03/03 A3004 RMK AO2 SLP171 T00330028

EXPIRED METARs :
  • 150607Z AUTO 14003KT 1/2SM FG VV003 03/03 A3003 RMK AO2 T00330028
  • 150555Z AUTO 15003KT 1/4SM FG VV002 03/03 A3003 RMK AO2 SLP169 60007 T00280028 10072 20022 53014
  • 150521Z AUTO 09003KT 1/4SM FG VV002 03/03 A3002 RMK AO2 T00330028
  • 150506Z AUTO 00000KT 1SM BR OVC004 02/02 A3002 RMK AO2 T00220022
  • 150455Z AUTO 00000KT 1SM BR BKN005 02/02 A3001 RMK AO2 SLP162 T00220022
  • 150431Z AUTO 00000KT 1 1/4SM BR FEW004 03/03 A3001 RMK AO2 T00330028
  • 150424Z AUTO 00000KT 1 3/4SM BR FEW040 03/03 A3001 RMK AO2 VIS 3/4 RWY 08 T00330028

TAF KAST
Valid from the 15 at 06:00 until the 16 at 06:00 UTC


150535Z 1506/1606 00000KT 1SM BR SCT004
TEMPO 1506/1508 1/4SM FG BKN004
FM150800 00000KT 1/4SM FG BKN004
FM151900 19006KT P6SM SCT025 OVC045
FM160500 VRB03KT 5SM BR VCFG BKN025



MET'MAP, your aeronautical weather chart ! - Copyright ORBIFLY December 2007 - Disclaimer

ORBIFLY MET'MAP TEAM :

Programming & Development : Alexandra Zaïnal
Concept & original design : Baudouin d'Aumeries
Assistance for programming : Marc-Olivier Méhu
Technical & hardware support : Manuel Goepfert

Contact : metmap@orbifly.com




SOURCES & CREDITS :

   NOAA       Earth
Advisory